Time;durP1;ratioP1;P1;durP2;ratioP2;P2;SDS_P1;SDS_P2;PMS_P1;PMS_P2;Temp;Humidity;BMP_temperature;BMP_pressure;BME280_temperature;BME280_humidity;BME280_pressure;Samples;Min_cycle;Max_cycle;Signal;HPM_P1;HPM_P2
2022/12/01 00:02:21;;;;;;;;;54.00;44.67;;;;;6.66;85.86;99389.84;5016427;28;46081;-76
2022/12/01 00:04:47;;;;;;;;;52.67;44.00;;;;;6.65;86.11;99388.13;5041160;28;45550;-77
2022/12/01 00:07:13;;;;;;;;;57.00;44.00;;;;;6.62;85.98;99383.78;5015035;28;47827;-77
2022/12/01 00:12:22;;;;;;;;;49.33;41.67;;;;;6.57;85.92;99384.78;5005996;28;45445;-76
2022/12/01 00:14:53;;;;;;;;;56.33;42.00;;;;;6.54;86.05;99388.31;4998264;28;45378;-77
2022/12/01 00:17:20;;;;;;;;;57.33;42.00;;;;;6.53;86.16;99388.38;5009684;28;45537;-77
2022/12/01 00:19:45;;;;;;;;;55.33;42.00;;;;;6.50;85.99;99391.91;5004879;28;45590;-77
2022/12/01 00:22:10;;;;;;;;;51.00;39.00;;;;;6.49;85.61;99394.56;5008490;28;45403;-77
2022/12/01 00:24:36;;;;;;;;;46.33;39.67;;;;;6.48;86.16;99392.81;5008047;28;45362;-76
2022/12/01 00:27:01;;;;;;;;;50.00;39.33;;;;;6.46;86.14;99391.97;5008276;28;46606;-77
2022/12/01 00:29:27;;;;;;;;;53.00;42.33;;;;;6.44;86.24;99388.53;5009356;28;45636;-77
2022/12/01 00:31:52;;;;;;;;;48.67;37.67;;;;;6.43;86.33;99394.66;5011949;28;45426;-77
2022/12/01 00:34:22;;;;;;;;;42.67;38.00;;;;;6.41;86.26;99384.22;5013701;28;45499;-76
2022/12/01 00:36:48;;;;;;;;;41.67;38.00;;;;;6.39;86.17;99386.00;5003985;28;46271;-77
2022/12/01 00:39:13;;;;;;;;;44.00;36.00;;;;;6.38;86.05;99389.50;5046610;28;45489;-77
2022/12/01 00:41:39;;;;;;;;;48.33;38.67;;;;;6.36;86.00;99383.47;5010152;28;45469;-77
2022/12/01 00:44:04;;;;;;;;;44.33;38.00;;;;;6.34;85.92;99387.84;5008049;28;45358;-77
2022/12/01 00:46:30;;;;;;;;;47.00;41.00;;;;;6.34;86.36;99384.38;5011797;28;45619;-77
2022/12/01 00:48:55;;;;;;;;;46.00;38.33;;;;;6.30;86.25;99386.19;5006744;28;45363;-77
2022/12/01 00:51:21;;;;;;;;;43.67;34.67;;;;;6.29;86.10;99384.44;5011122;28;45403;-76
2022/12/01 00:53:46;;;;;;;;;36.00;34.33;;;;;6.28;86.12;99382.72;5006476;28;45446;-77
2022/12/01 00:56:11;;;;;;;;;41.00;37.33;;;;;6.28;86.37;99395.81;5005208;28;45624;-77
2022/12/01 00:58:37;;;;;;;;;43.67;35.33;;;;;6.27;86.15;99391.47;5002291;28;45401;-77
2022/12/01 01:01:02;;;;;;;;;41.67;35.67;;;;;6.27;86.08;99391.47;5006828;28;45322;-77
2022/12/01 01:03:29;;;;;;;;;30.67;20.67;;;;;6.25;86.07;99396.72;5002735;28;45345;-76
2022/12/01 01:05:55;;;;;;;;;42.67;37.00;;;;;6.22;86.11;99398.53;5009241;28;45439;-77
2022/12/01 01:08:20;;;;;;;;;41.00;33.67;;;;;6.18;86.18;99397.75;5007221;28;45393;-77
2022/12/01 01:10:47;;;;;;;;;35.33;30.00;;;;;6.18;86.26;99391.66;5011442;28;45607;-77
2022/12/01 01:13:13;;;;;;;;;34.00;33.00;;;;;6.19;86.09;99404.72;5008613;28;45618;-77
2022/12/01 01:15:39;;;;;;;;;36.33;34.00;;;;;6.18;86.28;99396.88;5002859;28;46062;-77
2022/12/01 01:18:05;;;;;;;;;3.00;0.00;;;;;6.21;86.22;99394.19;5007227;28;45467;-77
2022/12/01 01:20:31;;;;;;;;;42.33;36.00;;;;;6.20;86.10;99398.56;5001014;28;45409;-77
2022/12/01 01:22:57;;;;;;;;;37.67;32.00;;;;;6.21;86.18;99397.66;5004864;28;45416;-77
2022/12/01 01:25:23;;;;;;;;;40.33;35.67;;;;;6.22;86.08;99403.75;5013185;28;48209;-77
2022/12/01 01:27:49;;;;;;;;;42.67;36.67;;;;;6.23;85.96;99405.50;5000914;28;45911;-77
2022/12/01 01:30:15;;;;;;;;;37.33;34.00;;;;;6.23;85.58;99408.09;5004695;28;45749;-77
2022/12/01 01:32:40;;;;;;;;;44.00;34.00;;;;;6.22;85.48;99409.00;5004742;28;45465;-77
2022/12/01 01:35:07;;;;;;;;;35.67;32.00;;;;;6.22;85.55;99409.00;5043183;28;46948;-77
2022/12/01 01:37:32;;;;;;;;;38.33;35.67;;;;;6.21;85.47;99408.13;5010542;28;45469;-77
2022/12/01 01:39:57;;;;;;;;;38.33;34.00;;;;;6.22;85.45;99409.88;5034500;28;45511;-77
2022/12/01 01:42:23;;;;;;;;;30.33;28.33;;;;;6.21;85.20;99409.88;5010342;28;45466;-77
2022/12/01 01:44:52;;;;;;;;;40.00;35.33;;;;;6.21;85.12;99408.13;5011621;28;46292;-77
2022/12/01 01:47:29;;;;;;;;;33.67;31.00;;;;;6.21;84.96;99408.13;5009527;28;45516;-77
2022/12/01 01:49:58;;;;;;;;;30.00;29.33;;;;;6.22;84.69;99406.38;4999450;28;45452;-77
2022/12/01 01:52:24;;;;;;;;;28.00;25.67;;;;;6.22;84.93;99412.47;5003177;28;45496;-76
2022/12/01 01:54:52;;;;;;;;;25.33;20.67;;;;;6.22;84.84;99409.00;5011704;28;45447;-76
2022/12/01 01:57:29;;;;;;;;;26.33;20.67;;;;;6.21;84.46;99415.13;5003426;28;45384;-77
2022/12/01 02:00:06;;;;;;;;;27.00;25.00;;;;;6.20;84.64;99414.25;5004378;28;45319;-77
2022/12/01 02:02:32;;;;;;;;;34.00;25.67;;;;;6.21;84.54;99413.38;5001185;28;45367;-77
2022/12/01 02:05:01;;;;;;;;;24.67;24.67;;;;;6.22;84.07;99416.84;5009981;28;45503;-77
2022/12/01 02:07:27;;;;;;;;;32.33;29.67;;;;;6.21;84.29;99409.88;5002193;28;45460;-76
2022/12/01 02:09:54;;;;;;;;;30.00;25.33;;;;;6.21;84.51;99418.59;5007330;28;45311;-77
2022/12/01 02:12:38;;;;;;;;;33.00;27.67;;;;;6.20;84.37;99414.25;5003864;28;45891;-77
2022/12/01 02:15:09;;;;;;;;;29.33;27.00;;;;;6.21;84.53;99420.34;5005738;28;45372;-77
2022/12/01 02:17:46;;;;;;;;;33.00;29.33;;;;;6.23;84.47;99415.97;5024885;28;45898;-77
2022/12/01 02:20:30;;;;;;;;;30.33;25.00;;;;;6.20;84.34;99416.88;5005676;28;45504;-77
2022/12/01 02:23:14;;;;;;;;;29.33;26.33;;;;;6.20;84.20;99416.03;5001352;28;45353;-76
2022/12/01 02:26:21;;;;;;;;;28.67;25.33;;;;;6.16;83.90;99417.84;5002492;28;45531;-77
2022/12/01 02:29:04;;;;;;;;;19.67;17.67;;;;;6.13;83.55;99415.28;5001229;28;45505;-76
2022/12/01 02:31:57;;;;;;;;;23.67;21.00;;;;;6.09;83.41;99417.97;5006724;28;45439;-77
2022/12/01 02:34:53;;;;;;;;;23.67;21.33;;;;;6.09;83.58;99412.72;5039566;28;45479;-76
2022/12/01 02:37:19;;;;;;;;;20.33;18.00;;;;;6.09;83.22;99415.34;5002644;28;46373;-76
2022/12/01 02:40:02;;;;;;;;;26.33;18.33;;;;;6.10;82.90;99417.06;5031351;28;45477;-76
2022/12/01 02:42:48;;;;;;;;;18.33;17.00;;;;;6.11;83.25;99409.19;5006460;28;45496;-77
2022/12/01 02:45:19;;;;;;;;;22.67;18.00;;;;;6.12;82.91;99413.53;5014280;28;45475;-77
2022/12/01 02:47:47;;;;;;;;;23.00;17.00;;;;;6.12;83.22;99404.84;5034149;28;45378;-77
2022/12/01 02:50:13;;;;;;;;;27.67;22.33;;;;;6.11;83.28;99406.59;5006724;28;45445;-77
2022/12/01 02:52:41;;;;;;;;;22.00;20.00;;;;;6.15;83.17;99404.78;5004444;28;45379;-76
2022/12/01 02:55:07;;;;;;;;;24.33;19.67;;;;;6.17;83.20;99398.63;5010541;28;45421;-77
2022/12/01 02:57:32;;;;;;;;;20.00;18.67;;;;;6.22;83.28;99399.41;5008518;28;45607;-77
2022/12/01 02:59:59;;;;;;;;;26.67;24.00;;;;;6.26;83.57;99397.59;5012629;28;45394;-77
2022/12/01 03:03:03;;;;;;;;;25.67;25.00;;;;;6.29;83.60;99394.91;5005963;28;45527;-77
2022/12/01 03:05:47;;;;;;;;;17.67;17.67;;;;;6.30;83.60;99400.13;5026119;28;45700;-77
2022/12/01 03:08:25;;;;;;;;;18.33;15.67;;;;;6.33;83.31;99407.06;5008144;28;45543;-77
2022/12/01 03:11:01;;;;;;;;;18.00;18.00;;;;;6.33;83.16;99398.34;4997063;28;45315;-77
2022/12/01 03:14:06;;;;;;;;;26.67;25.00;;;;;6.33;84.38;99406.22;4997450;28;45405;-77
2022/12/01 03:16:51;;;;;;;;;25.33;24.00;;;;;6.30;84.22;99409.75;4998420;28;45510;-77
2022/12/01 03:19:38;;;;;;;;;27.67;24.67;;;;;6.30;84.11;99407.13;5007845;28;46493;-77
2022/12/01 03:22:09;;;;;;;;;19.67;18.00;;;;;6.32;83.53;99412.34;5005985;28;45534;-77
2022/12/01 03:24:37;;;;;;;;;28.67;22.33;;;;;6.33;83.25;99401.84;5000225;28;45316;-76
2022/12/01 03:27:04;;;;;;;;;25.00;21.67;;;;;6.37;82.93;99405.25;5010735;28;45495;-77
2022/12/01 03:29:42;;;;;;;;;16.00;14.67;;;;;6.40;82.53;99402.56;5012231;28;46411;-77
2022/12/01 03:32:17;;;;;;;;;15.33;13.33;;;;;6.42;82.34;99408.63;5008338;28;45424;-77
2022/12/01 03:34:58;;;;;;;;;19.67;15.67;;;;;6.43;81.99;99402.50;5012992;28;45368;-76
2022/12/01 03:37:24;;;;;;;;;20.67;17.67;;;;;6.42;81.78;99404.25;5011742;28;45511;-76
2022/12/01 03:39:53;;;;;;;;;13.33;13.33;;;;;6.40;81.95;99406.03;5008680;28;45433;-77
2022/12/01 03:42:31;;;;;;;;;25.33;20.33;;;;;6.37;82.43;99410.50;5008952;28;45486;-77
2022/12/01 03:45:03;;;;;;;;;17.00;17.00;;;;;6.34;81.86;99402.69;5005513;28;45471;-77
2022/12/01 03:47:31;;;;;;;;;17.67;16.33;;;;;6.31;81.69;99401.00;5000100;28;45505;-77
2022/12/01 03:49:59;;;;;;;;;16.00;16.00;;;;;6.26;81.77;99408.94;5013707;28;46543;-77
2022/12/01 03:53:02;;;;;;;;;21.33;18.33;;;;;6.26;81.82;99402.81;5036059;28;45454;-77
2022/12/01 03:55:36;;;;;;;;;16.33;14.00;;;;;6.26;82.02;99406.31;5036983;28;45532;-76
2022/12/01 03:58:21;;;;;;;;;18.33;16.00;;;;;6.29;81.48;99408.00;5011321;28;45457;-77
2022/12/01 04:00:48;;;;;;;;;17.67;16.00;;;;;6.30;81.54;99412.34;5010336;28;45438;-77
2022/12/01 04:03:19;;;;;;;;;19.33;19.00;;;;;6.33;82.23;99408.81;4997088;28;45413;-77
2022/12/01 04:05:45;;;;;;;;;23.00;19.67;;;;;6.34;82.68;99408.81;4997674;28;45428;-77
2022/12/01 04:08:10;;;;;;;;;22.67;19.33;;;;;6.36;82.44;99408.78;4999502;28;45513;-77
2022/12/01 04:10:35;;;;;;;;;24.67;24.67;;;;;6.35;82.52;99409.66;5010418;28;46274;-77
2022/12/01 04:13:01;;;;;;;;;26.00;22.67;;;;;6.34;82.87;99407.94;5004750;28;45418;-76
2022/12/01 04:15:28;;;;;;;;;36.67;24.67;;;;;6.35;83.26;99409.66;5002185;28;45354;-76
2022/12/01 04:17:53;;;;;;;;;28.33;26.00;;;;;6.35;83.68;99405.28;5007926;28;45495;-76
2022/12/01 04:20:19;;;;;;;;;37.67;30.33;;;;;6.37;84.22;99400.03;5004237;28;45437;-76
2022/12/01 04:22:44;;;;;;;;;36.33;31.67;;;;;6.39;84.14;99404.31;5010220;28;45474;-77
2022/12/01 04:25:10;;;;;;;;;25.00;25.00;;;;;6.41;84.02;99407.78;5010581;28;45710;-77
2022/12/01 04:27:36;;;;;;;;;33.00;26.67;;;;;6.41;83.96;99401.69;5011411;28;45402;-77
2022/12/01 04:30:06;;;;;;;;;38.33;33.33;;;;;6.41;83.90;99399.91;5009159;28;46276;-77
2022/12/01 04:32:37;;;;;;;;;26.33;23.33;;;;;6.41;83.43;99397.31;4999926;28;45623;-77
2022/12/01 04:35:03;;;;;;;;;29.67;26.00;;;;;6.40;83.45;99406.03;5034301;28;45416;-76
2022/12/01 04:37:28;;;;;;;;;27.33;23.33;;;;;6.38;83.47;99397.34;5003101;28;45486;-76
2022/12/01 04:39:53;;;;;;;;;26.67;24.00;;;;;6.38;83.66;99410.44;5002821;28;47156;-76
2022/12/01 04:42:19;;;;;;;;;23.67;20.67;;;;;6.38;83.68;99396.50;5005064;28;45385;-77
2022/12/01 04:44:44;;;;;;;;;26.33;22.33;;;;;6.38;83.66;99401.72;5010848;28;45365;-77
2022/12/01 04:47:09;;;;;;;;;26.00;24.33;;;;;6.37;83.10;99398.25;5011692;28;45606;-77
2022/12/01 04:49:36;;;;;;;;;29.67;22.67;;;;;6.34;83.06;99400.94;5011262;28;46220;-77
2022/12/01 04:52:01;;;;;;;;;24.33;22.67;;;;;6.30;83.30;99402.75;5009619;28;45543;-76
2022/12/01 04:54:27;;;;;;;;;24.33;21.33;;;;;6.29;83.14;99401.03;4996124;28;45352;-77
2022/12/01 04:56:52;;;;;;;;;25.33;21.00;;;;;6.30;83.16;99396.66;4998034;28;45591;-77
2022/12/01 04:59:17;;;;;;;;;24.00;22.33;;;;;6.30;83.03;99394.03;5000719;28;46613;-77
2022/12/01 05:01:43;;;;;;;;;18.33;16.33;;;;;6.30;82.79;99399.28;4998187;28;45354;-77
2022/12/01 05:04:14;;;;;;;;;22.33;19.00;;;;;6.29;82.51;99397.53;5000317;28;45447;-77
2022/12/01 05:06:40;;;;;;;;;21.67;18.33;;;;;6.27;82.56;99408.03;5007878;28;45658;-77
2022/12/01 05:09:06;;;;;;;;;16.00;15.33;;;;;6.26;82.36;99401.06;5001503;28;46243;-77
2022/12/01 05:11:32;;;;;;;;;21.00;13.67;;;;;6.26;82.36;99405.44;5003724;28;45399;-77
2022/12/01 05:13:58;;;;;;;;;16.00;16.00;;;;;6.27;82.03;99409.78;5005942;28;45469;-77
2022/12/01 05:16:30;;;;;;;;;30.67;27.00;;;;;6.27;82.40;99407.16;5006547;28;45569;-76
2022/12/01 05:21:44;;;;;;;;;25.33;25.33;;;;;6.26;83.32;99408.06;5006160;28;45349;-76
2022/12/01 05:24:11;;;;;;;;;29.33;26.33;;;;;6.26;82.95;99408.06;5001427;28;45444;-77
2022/12/01 05:26:36;;;;;;;;;27.00;25.00;;;;;6.25;83.45;99411.56;5008107;28;45865;-76
2022/12/01 05:29:02;;;;;;;;;32.67;26.00;;;;;6.25;83.66;99406.34;5006677;28;45976;-77
2022/12/01 05:31:28;;;;;;;;;27.00;23.67;;;;;6.25;83.74;99412.44;5006498;28;45485;-77
2022/12/01 05:33:53;;;;;;;;;27.00;22.00;;;;;6.23;83.97;99414.22;4996928;28;45374;-77
2022/12/01 05:36:18;;;;;;;;;24.33;24.33;;;;;6.25;83.76;99412.44;4996268;28;45301;-76
2022/12/01 05:38:44;;;;;;;;;26.67;24.67;;;;;6.26;84.24;99418.53;5012051;28;46348;-76
2022/12/01 05:41:09;;;;;;;;;28.33;24.33;;;;;6.27;84.39;99421.13;5012824;28;45487;-77
2022/12/01 05:43:34;;;;;;;;;25.67;23.33;;;;;6.27;84.09;99418.50;5006091;28;45505;-77
2022/12/01 05:46:00;;;;;;;;;29.67;27.00;;;;;6.27;84.35;99418.50;5000735;28;45569;-77
2022/12/01 05:48:26;;;;;;;;;23.00;22.67;;;;;6.28;84.25;99419.38;5002127;28;45438;-77
2022/12/01 05:50:51;;;;;;;;;29.67;29.67;;;;;6.28;84.01;99415.00;5016752;28;45330;-77
2022/12/01 05:53:18;;;;;;;;;23.33;21.33;;;;;6.28;84.25;99422.00;5005534;28;45417;-77
2022/12/01 05:55:44;;;;;;;;;34.33;26.00;;;;;6.27;84.01;99418.50;5014038;28;45408;-77
2022/12/01 05:58:09;;;;;;;;;26.33;23.67;;;;;6.29;84.27;99423.72;5005540;28;45551;-77
2022/12/01 06:00:36;;;;;;;;;34.33;26.00;;;;;6.30;84.29;99418.47;5015958;28;45489;-77
2022/12/01 06:03:03;;;;;;;;;27.33;25.33;;;;;6.32;84.38;99420.19;5004638;28;45441;-77
2022/12/01 06:05:28;;;;;;;;;27.33;25.00;;;;;6.29;84.46;99423.72;4997041;28;45447;-76
2022/12/01 06:07:53;;;;;;;;;32.33;27.33;;;;;6.28;84.65;99432.47;5005266;28;45459;-77
2022/12/01 06:10:19;;;;;;;;;26.33;24.33;;;;;6.26;84.89;99426.38;5007468;28;45484;-77
2022/12/01 06:12:44;;;;;;;;;27.00;22.00;;;;;6.27;84.57;99433.34;5005939;28;45421;-77
2022/12/01 06:15:11;;;;;;;;;24.67;22.33;;;;;6.27;84.87;99436.84;5010036;28;45402;-77
2022/12/01 06:17:37;;;;;;;;;31.00;26.67;;;;;6.26;84.99;99434.25;5014169;28;45365;-77
2022/12/01 06:20:04;;;;;;;;;28.00;27.00;;;;;6.27;84.87;99431.59;5009790;28;45463;-77
2022/12/01 06:22:29;;;;;;;;;27.67;21.33;;;;;6.27;84.93;99438.59;5013383;28;45464;-77
2022/12/01 06:24:54;;;;;;;;;31.67;28.00;;;;;6.29;84.85;99436.81;5008269;28;45493;-77
2022/12/01 06:27:20;;;;;;;;;27.67;25.00;;;;;6.32;84.51;99441.13;5013780;28;46914;-76
2022/12/01 06:29:45;;;;;;;;;29.00;25.00;;;;;6.34;84.30;99444.59;5011386;28;45315;-76
2022/12/01 06:32:11;;;;;;;;;24.33;21.67;;;;;6.35;84.14;99451.56;5039403;28;45613;-77
2022/12/01 06:34:36;;;;;;;;;24.67;24.33;;;;;6.36;84.13;99453.28;4999997;28;45614;-76
2022/12/01 06:37:01;;;;;;;;;23.67;22.00;;;;;6.38;84.36;99454.09;5010659;28;45618;-77
2022/12/01 06:39:27;;;;;;;;;27.00;25.00;;;;;6.40;84.20;99452.31;5008592;28;45440;-77
2022/12/01 06:41:52;;;;;;;;;28.33;23.00;;;;;6.42;84.14;99450.53;5006939;28;45425;-77
2022/12/01 06:44:18;;;;;;;;;26.00;23.00;;;;;6.43;83.93;99455.75;5008592;28;45384;-77
2022/12/01 06:46:43;;;;;;;;;27.00;21.67;;;;;6.43;83.87;99461.00;5004566;28;46335;-76
2022/12/01 06:49:12;;;;;;;;;31.00;28.33;;;;;6.45;84.00;99461.81;5007397;28;45390;-77
2022/12/01 06:51:38;;;;;;;;;34.00;26.67;;;;;6.47;83.81;99464.41;5002642;28;45425;-77
2022/12/01 06:54:04;;;;;;;;;28.00;25.00;;;;;6.47;83.87;99465.28;5010602;28;45415;-77
2022/12/01 06:56:29;;;;;;;;;19.00;17.00;;;;;6.48;83.29;99468.78;5011427;28;46498;-76
2022/12/01 06:58:55;;;;;;;;;27.67;23.33;;;;;6.47;83.06;99465.28;5039256;28;45556;-77
2022/12/01 07:01:20;;;;;;;;;22.33;22.33;;;;;6.48;83.11;99469.63;5031036;28;45585;-76
2022/12/01 07:03:47;;;;;;;;;31.67;28.67;;;;;6.48;83.18;99474.88;5043331;28;45428;-77
2022/12/01 07:06:13;;;;;;;;;31.33;25.33;;;;;6.48;83.24;99467.00;4998471;28;48127;-76
2022/12/01 07:08:38;;;;;;;;;27.33;24.00;;;;;6.47;83.40;99467.91;5010515;28;45908;-76
2022/12/01 07:11:13;;;;;;;;;31.00;27.00;;;;;6.51;83.13;99477.44;5012259;28;45417;-76
2022/12/01 07:13:40;;;;;;;;;31.67;30.00;;;;;6.51;83.44;99480.06;5003504;28;45373;-77
2022/12/01 07:16:07;;;;;;;;;25.33;24.00;;;;;6.53;83.59;99480.03;5005081;28;46096;-77
2022/12/01 07:18:33;;;;;;;;;33.00;29.67;;;;;6.54;83.60;99484.34;5012216;28;45570;-77
2022/12/01 07:21:05;;;;;;;;;29.67;24.33;;;;;6.55;83.68;99486.94;5008969;28;45537;-77
2022/12/01 07:23:32;;;;;;;;;32.67;30.33;;;;;6.56;83.78;99487.81;5024304;28;45476;-77
2022/12/01 07:26:06;;;;;;;;;36.33;32.33;;;;;6.55;83.84;99484.34;5042509;28;47079;-77
2022/12/01 07:28:32;;;;;;;;;28.67;27.33;;;;;6.57;83.95;99495.66;5010078;28;45365;-77
2022/12/01 07:31:06;;;;;;;;;28.33;24.67;;;;;6.61;83.68;99494.72;5013611;28;45391;-77
2022/12/01 07:33:32;;;;;;;;;30.33;27.33;;;;;6.61;83.74;99496.47;5011193;28;45582;-76
2022/12/01 07:35:58;;;;;;;;;32.00;30.33;;;;;6.64;83.88;99496.41;5003142;28;45496;-78
2022/12/01 07:38:26;;;;;;;;;28.00;25.33;;;;;6.68;83.53;99497.22;4995815;28;45733;-78
2022/12/01 07:40:51;;;;;;;;;30.00;27.00;;;;;6.67;83.03;99503.34;5039740;28;45481;-78
2022/12/01 07:43:16;;;;;;;;;32.33;29.67;;;;;6.68;82.81;99503.34;5001186;28;45497;-78
2022/12/01 07:45:42;;;;;;;;;27.33;23.33;;;;;6.69;82.87;99501.56;5004795;28;45412;-78
2022/12/01 07:48:07;;;;;;;;;31.67;26.33;;;;;6.70;82.63;99511.16;5008178;28;45458;-78
2022/12/01 07:50:33;;;;;;;;;36.00;31.67;;;;;6.71;82.71;99508.50;5009401;28;45437;-76
2022/12/01 07:52:58;;;;;;;;;38.67;33.67;;;;;6.70;82.54;99516.41;5011669;28;45531;-78
2022/12/01 07:55:23;;;;;;;;;30.33;26.67;;;;;6.71;82.68;99508.50;5011794;28;45448;-78
2022/12/01 07:57:49;;;;;;;;;29.33;26.00;;;;;6.74;82.67;99512.81;5038196;28;45839;-77
2022/12/01 08:00:14;;;;;;;;;36.33;26.00;;;;;6.75;82.42;99510.16;5002729;28;45449;-77
2022/12/01 08:02:40;;;;;;;;;31.00;30.67;;;;;6.77;82.21;99513.63;5003269;28;45413;-78
2022/12/01 08:05:05;;;;;;;;;30.00;28.00;;;;;6.79;81.92;99518.84;5009984;28;46299;-77
2022/12/01 08:07:31;;;;;;;;;31.33;26.67;;;;;6.78;81.83;99519.72;5005359;28;45437;-77
2022/12/01 08:09:56;;;;;;;;;38.33;33.67;;;;;6.79;81.79;99514.47;5002288;28;45385;-77
2022/12/01 08:12:22;;;;;;;;;34.33;30.33;;;;;6.80;81.71;99520.56;5005798;28;45540;-77
2022/12/01 08:14:47;;;;;;;;;28.33;24.67;;;;;6.80;81.46;99512.72;4995719;28;46246;-77
2022/12/01 08:17:12;;;;;;;;;30.00;26.00;;;;;6.80;81.82;99517.94;4998732;28;45377;-77
2022/12/01 08:19:38;;;;;;;;;31.00;29.00;;;;;6.82;81.61;99518.78;5002846;28;45373;-77
2022/12/01 08:22:03;;;;;;;;;27.67;27.00;;;;;6.82;81.53;99516.16;5037187;28;45570;-77
2022/12/01 08:24:28;;;;;;;;;30.00;27.00;;;;;6.83;81.39;99518.78;5001816;28;45824;-77
2022/12/01 08:26:54;;;;;;;;;30.67;26.67;;;;;6.86;81.03;99513.47;5004109;28;45453;-77
2022/12/01 08:29:19;;;;;;;;;28.00;24.67;;;;;6.87;81.06;99512.56;5002670;28;45437;-77
2022/12/01 08:31:44;;;;;;;;;31.67;28.67;;;;;6.88;80.71;99506.41;5005549;28;45436;-78
2022/12/01 08:34:10;;;;;;;;;30.00;27.33;;;;;6.89;80.52;99509.91;5009618;28;46443;-77
2022/12/01 08:36:36;;;;;;;;;29.00;25.33;;;;;6.91;80.65;99508.13;5007042;28;45516;-77
2022/12/01 08:39:02;;;;;;;;;29.00;23.00;;;;;6.95;80.73;99507.19;5003507;28;45511;-77
2022/12/01 08:41:28;;;;;;;;;36.00;28.33;;;;;6.99;80.71;99511.47;5010343;28;45468;-77
2022/12/01 08:43:54;;;;;;;;;28.00;26.67;;;;;7.04;80.47;99504.38;4993017;28;46711;-77
2022/12/01 08:46:19;;;;;;;;;27.67;25.67;;;;;7.08;80.18;99510.41;5008506;28;45451;-77
2022/12/01 08:48:45;;;;;;;;;28.00;27.00;;;;;7.09;80.14;99510.38;4996932;28;45496;-77
2022/12/01 08:51:14;;;;;;;;;27.67;25.67;;;;;7.13;79.89;99506.81;5000514;28;45422;-78
2022/12/01 08:53:42;;;;;;;;;30.00;28.00;;;;;7.18;79.95;99509.34;4997699;28;45464;-77
2022/12/01 08:56:12;;;;;;;;;30.00;28.00;;;;;7.23;79.77;99512.72;5034909;28;45519;-77
2022/12/01 08:58:38;;;;;;;;;29.67;27.00;;;;;7.28;79.70;99518.75;5000017;28;45337;-78
2022/12/01 09:01:06;;;;;;;;;32.00;27.67;;;;;7.29;79.83;99520.47;5005047;28;45415;-78
2022/12/01 09:03:33;;;;;;;;;35.33;31.00;;;;;7.36;80.04;99519.47;5005065;28;45530;-78
2022/12/01 09:06:12;;;;;;;;;40.00;32.67;;;;;7.41;79.73;99524.59;5009353;28;45266;-78
2022/12/01 09:08:37;;;;;;;;;25.33;24.00;;;;;7.43;79.50;99523.69;4998690;28;45400;-77
2022/12/01 09:11:07;;;;;;;;;33.00;30.67;;;;;7.47;79.14;99525.34;5011449;28;45327;-78
2022/12/01 09:13:34;;;;;;;;;28.67;27.33;;;;;7.53;79.00;99527.84;5007090;28;46422;-77
2022/12/01 09:16:02;;;;;;;;;36.33;29.00;;;;;7.58;78.86;99531.22;4993172;28;45480;-76
2022/12/01 09:18:28;;;;;;;;;28.67;27.33;;;;;7.65;78.71;99527.59;4996426;28;45486;-76
2022/12/01 09:20:54;;;;;;;;;34.00;32.33;;;;;7.68;78.68;99530.13;5000730;28;45527;-78
2022/12/01 09:23:21;;;;;;;;;36.67;30.33;;;;;7.71;78.44;99530.03;5002238;28;45489;-78
2022/12/01 09:25:48;;;;;;;;;32.33;31.00;;;;;7.75;78.16;99541.34;5000344;28;45436;-78
2022/12/01 09:28:14;;;;;;;;;34.00;29.67;;;;;7.76;78.13;99529.97;5001077;28;45633;-77
2022/12/01 09:30:39;;;;;;;;;38.33;30.67;;;;;7.79;77.98;99532.53;5009900;28;45406;-78
2022/12/01 09:33:05;;;;;;;;;31.67;27.33;;;;;7.83;78.08;99526.31;5029401;28;48261;-77
2022/12/01 09:35:31;;;;;;;;;33.00;27.33;;;;;7.86;77.92;99531.50;5016365;28;45374;-76
2022/12/01 09:37:57;;;;;;;;;34.67;32.33;;;;;7.89;77.85;99523.53;5011349;28;45494;-77
2022/12/01 09:40:30;;;;;;;;;45.67;34.67;;;;;7.95;77.64;99523.41;5012819;28;45351;-76
2022/12/01 09:42:59;;;;;;;;;36.33;32.33;;;;;8.02;77.46;99524.13;5019655;28;47475;-77
2022/12/01 09:45:30;;;;;;;;;29.33;27.67;;;;;8.05;77.07;99524.91;5015937;28;45577;-77
2022/12/01 09:47:59;;;;;;;;;32.67;29.33;;;;;8.10;77.33;99524.78;5003698;28;45428;-77
2022/12/01 09:50:28;;;;;;;;;25.00;21.33;;;;;8.17;77.07;99526.38;5027555;28;45900;-77
2022/12/01 09:53:04;;;;;;;;;35.00;32.33;;;;;8.22;77.16;99515.75;5005973;28;46104;-77
2022/12/01 09:55:31;;;;;;;;;39.67;33.33;;;;;8.25;76.91;99521.81;5008084;28;45420;-77
2022/12/01 09:57:58;;;;;;;;;38.33;33.00;;;;;8.30;76.88;99511.19;5036899;28;45408;-77
2022/12/01 10:00:28;;;;;;;;;43.00;34.67;;;;;8.32;76.44;99514.69;5000234;28;45433;-77
2022/12/01 10:03:28;;;;;;;;;37.00;33.67;;;;;8.34;76.07;99508.50;5001625;28;45358;-77
2022/12/01 10:06:18;;;;;;;;;37.00;34.00;;;;;8.40;75.54;99504.81;5006028;28;45445;-77
2022/12/01 10:09:03;;;;;;;;;28.33;28.33;;;;;8.42;74.72;99508.28;5008848;28;45526;-78
2022/12/01 10:11:35;;;;;;;;;34.33;30.33;;;;;8.46;74.60;99509.06;5013042;28;45315;-77
2022/12/01 10:14:03;;;;;;;;;30.67;28.33;;;;;8.50;74.29;99506.34;5006048;28;45614;-76
2022/12/01 10:16:45;;;;;;;;;33.33;33.00;;;;;8.56;74.46;99503.53;4996054;28;45346;-79
2022/12/01 10:19:23;;;;;;;;;32.33;27.00;;;;;8.60;74.29;99499.94;4998172;28;45387;-77
2022/12/01 10:21:55;;;;;;;;;33.67;29.00;;;;;8.62;74.32;99495.50;5000192;28;45419;-77
2022/12/01 10:24:46;;;;;;;;;30.33;27.00;;;;;8.61;73.99;99490.28;5028301;28;47363;-77
2022/12/01 10:27:36;;;;;;;;;29.67;28.00;;;;;8.61;73.47;99491.16;5037708;28;45719;-78
2022/12/01 10:30:14;;;;;;;;;38.00;31.33;;;;;8.66;73.63;99493.66;5031531;28;45391;-78
2022/12/01 10:32:53;;;;;;;;;42.33;37.33;;;;;8.71;73.85;99483.91;5020806;28;45421;-77
2022/12/01 10:35:26;;;;;;;;;30.33;29.33;;;;;8.73;73.47;99482.94;5012423;28;46212;-77
2022/12/01 10:38:00;;;;;;;;;31.00;28.00;;;;;8.76;73.38;99482.00;5002558;28;45455;-77
2022/12/01 10:40:26;;;;;;;;;38.33;31.67;;;;;8.82;73.27;99479.22;5008144;28;45553;-78
2022/12/01 10:42:52;;;;;;;;;27.00;24.00;;;;;8.84;72.55;99485.28;5021868;28;45652;-78
2022/12/01 10:45:22;;;;;;;;;29.67;28.00;;;;;8.84;72.31;99477.41;5012674;28;47614;-78
2022/12/01 10:48:17;;;;;;;;;27.67;27.00;;;;;8.88;72.48;99481.66;5004440;28;46523;-78
2022/12/01 10:50:46;;;;;;;;;33.33;21.33;;;;;8.93;72.07;99482.38;5039849;28;45402;-77
2022/12/01 10:53:30;;;;;;;;;31.00;24.67;;;;;8.99;71.90;99473.47;5008987;28;45697;-77
2022/12/01 10:56:03;;;;;;;;;28.33;27.00;;;;;9.04;71.57;99474.22;5010457;28;46173;-78
2022/12/01 10:58:32;;;;;;;;;29.33;25.33;;;;;9.06;71.68;99478.50;5014998;28;45367;-78
2022/12/01 11:01:04;;;;;;;;;28.33;26.67;;;;;9.06;71.42;99477.63;5002730;28;45466;-78
2022/12/01 11:03:33;;;;;;;;;30.67;29.00;;;;;9.06;71.56;99478.50;5005732;28;45467;-78
2022/12/01 11:06:01;;;;;;;;;33.67;30.00;;;;;9.08;71.52;99475.84;5011192;28;46178;-78
2022/12/01 11:08:29;;;;;;;;;23.00;19.00;;;;;9.09;71.69;99475.78;4998220;28;46167;-78
2022/12/01 11:10:55;;;;;;;;;30.00;28.00;;;;;9.09;72.12;99473.16;5010758;28;45400;-78
2022/12/01 11:13:28;;;;;;;;;34.00;29.67;;;;;9.12;71.40;99474.00;5009387;28;45546;-78
2022/12/01 11:16:00;;;;;;;;;30.33;29.33;;;;;9.13;71.08;99475.72;5010138;28;45687;-78
2022/12/01 11:18:33;;;;;;;;;31.67;30.33;;;;;9.12;71.87;99477.47;5009796;28;45416;-79
2022/12/01 11:21:26;;;;;;;;;32.33;27.67;;;;;9.12;70.98;99474.84;5007013;28;45459;-79
2022/12/01 11:23:54;;;;;;;;;30.00;24.33;;;;;9.09;71.04;99475.78;4996156;28;45303;-80
2022/12/01 11:26:24;;;;;;;;;29.67;25.67;;;;;9.08;70.99;99473.22;4996496;28;45925;-79
2022/12/01 11:28:57;;;;;;;;;25.33;24.33;;;;;9.08;70.88;99481.09;5000264;28;45389;-78
2022/12/01 11:31:37;;;;;;;;;34.00;28.67;;;;;9.07;70.44;99477.59;4998257;28;45624;-77
2022/12/01 11:34:03;;;;;;;;;32.00;29.33;;;;;9.10;70.98;99471.41;5028904;28;45400;-77
2022/12/01 11:36:37;;;;;;;;;39.00;30.67;;;;;9.14;71.17;99470.41;5002265;28;45378;-77
2022/12/01 11:39:02;;;;;;;;;37.00;33.33;;;;;9.15;71.34;99474.78;5020625;28;45438;-78
2022/12/01 11:41:39;;;;;;;;;33.33;30.67;;;;;9.18;71.28;99469.44;5040489;28;45335;-78